createdAt,value
2022-08-19T00:01:59.393Z,99.90
2022-08-19T00:04:33.514Z,99.90
2022-08-19T00:07:02.213Z,99.90
2022-08-19T00:09:30.750Z,99.90
2022-08-19T00:12:00.477Z,99.90
2022-08-19T00:14:32.535Z,99.90
2022-08-19T00:17:01.483Z,99.90
2022-08-19T00:19:31.207Z,99.90
2022-08-19T00:21:59.360Z,99.90
2022-08-19T00:24:29.639Z,99.90
2022-08-19T00:27:24.875Z,99.90
2022-08-19T00:29:46.631Z,99.90
2022-08-19T00:32:21.311Z,99.90
2022-08-19T00:34:51.667Z,99.90
2022-08-19T00:37:20.187Z,99.90
2022-08-19T00:39:49.239Z,99.90
2022-08-19T00:42:17.797Z,99.90
2022-08-19T00:44:46.527Z,99.90
2022-08-19T00:47:15.213Z,99.90
2022-08-19T00:49:52.208Z,99.90
2022-08-19T00:52:28.013Z,99.90
2022-08-19T00:54:56.303Z,99.90
2022-08-19T00:57:28.631Z,99.90
2022-08-19T01:00:02.554Z,99.90
2022-08-19T01:02:32.797Z,99.90
2022-08-19T01:05:03.566Z,99.90
2022-08-19T01:07:35.957Z,99.90
2022-08-19T01:10:09.702Z,99.90
2022-08-19T01:12:38.115Z,99.90
2022-08-19T01:15:07.993Z,99.90
2022-08-19T01:17:38.423Z,99.90
2022-08-19T01:20:08.495Z,99.90
2022-08-19T01:22:43.180Z,99.90
2022-08-19T01:25:14.989Z,99.90
2022-08-19T01:27:47.894Z,99.90
2022-08-19T01:30:21.456Z,99.90
2022-08-19T01:32:49.579Z,99.90
2022-08-19T01:35:19.068Z,99.90
2022-08-19T01:37:52.382Z,99.90
2022-08-19T01:40:22.748Z,99.90
2022-08-19T01:42:51.225Z,99.90
2022-08-19T01:45:19.886Z,99.90
2022-08-19T01:47:52.785Z,99.90
2022-08-19T01:50:32.066Z,99.90
2022-08-19T01:53:06.187Z,99.90
2022-08-19T01:55:40.806Z,99.90
2022-08-19T01:58:12.864Z,99.90
2022-08-19T02:00:41.478Z,99.90
2022-08-19T02:03:10.302Z,99.90
2022-08-19T02:05:38.775Z,99.90
2022-08-19T02:08:09.086Z,99.90
2022-08-19T02:10:41.547Z,99.90
2022-08-19T02:13:09.831Z,99.90
2022-08-19T02:15:38.891Z,99.90
2022-08-19T02:18:08.357Z,99.90
2022-08-19T02:20:36.833Z,99.90
2022-08-19T02:23:05.061Z,99.90
2022-08-19T02:25:34.517Z,99.90
2022-08-19T02:28:02.878Z,99.90
2022-08-19T02:30:30.951Z,99.90
2022-08-19T02:32:59.582Z,99.90
2022-08-19T02:35:28.019Z,99.90
2022-08-19T02:38:13.350Z,99.90
2022-08-19T02:40:42.782Z,99.90
2022-08-19T02:43:11.306Z,99.90
2022-08-19T02:45:41.583Z,99.90
2022-08-19T02:48:21.333Z,99.90
2022-08-19T02:50:53.864Z,99.90
2022-08-19T02:53:23.084Z,99.90
2022-08-19T02:55:52.907Z,99.90
2022-08-19T02:58:23.226Z,99.90
2022-08-19T03:00:55.719Z,99.90
2022-08-19T03:03:24.420Z,99.90
2022-08-19T03:05:56.730Z,99.90
2022-08-19T03:08:26.855Z,99.90
2022-08-19T03:10:56.320Z,99.90
2022-08-19T03:13:25.262Z,99.90
2022-08-19T03:15:53.592Z,99.90
2022-08-19T03:18:23.146Z,99.90
2022-08-19T03:20:53.851Z,99.90
2022-08-19T03:23:22.319Z,99.90
2022-08-19T03:26:03.236Z,99.90
2022-08-19T03:28:41.081Z,99.90
2022-08-19T03:31:44.320Z,99.90
2022-08-19T03:34:00.821Z,99.90
2022-08-19T03:36:29.708Z,99.90
2022-08-19T03:39:00.343Z,99.90
2022-08-19T03:41:44.562Z,99.90
2022-08-19T03:44:18.001Z,99.90
2022-08-19T03:46:48.262Z,99.90
2022-08-19T03:49:18.292Z,99.90
2022-08-19T03:51:48.345Z,99.90
2022-08-19T03:54:18.343Z,99.90
2022-08-19T03:56:48.565Z,99.90
2022-08-19T03:59:26.856Z,99.90
2022-08-19T04:01:55.776Z,99.90
2022-08-19T04:04:24.412Z,99.90
2022-08-19T04:06:53.243Z,99.90
2022-08-19T04:09:22.442Z,99.90
2022-08-19T04:11:54.762Z,99.90
2022-08-19T04:14:26.417Z,99.90
2022-08-19T04:16:55.016Z,99.90
2022-08-19T04:19:23.953Z,99.90
2022-08-19T04:21:55.075Z,99.90
2022-08-19T04:24:24.000Z,99.90
2022-08-19T04:26:52.473Z,99.90
2022-08-19T04:29:25.952Z,99.90
2022-08-19T04:31:56.940Z,99.90
2022-08-19T04:34:26.963Z,99.90
2022-08-19T04:36:56.793Z,99.90
2022-08-19T04:39:47.235Z,99.90
2022-08-19T04:42:34.251Z,99.90
2022-08-19T04:45:04.185Z,99.90
2022-08-19T04:47:48.283Z,99.90
2022-08-19T04:50:23.604Z,99.90
2022-08-19T04:52:54.193Z,99.90
2022-08-19T04:55:22.576Z,99.90
2022-08-19T04:57:51.692Z,99.90
2022-08-19T05:00:19.937Z,99.90
2022-08-19T05:02:50.322Z,99.90
2022-08-19T05:05:18.786Z,99.90
2022-08-19T05:07:47.008Z,99.90
2022-08-19T05:10:15.139Z,99.90
2022-08-19T05:12:43.286Z,99.90
2022-08-19T05:15:12.250Z,99.90
2022-08-19T05:18:01.162Z,99.90
2022-08-19T05:20:48.058Z,99.90
2022-08-19T05:23:21.911Z,99.90
2022-08-19T05:25:51.254Z,99.90
2022-08-19T05:28:19.743Z,99.90
2022-08-19T05:30:49.073Z,99.90
2022-08-19T05:33:17.312Z,99.90
2022-08-19T05:35:47.128Z,99.90
2022-08-19T05:38:15.413Z,99.90
2022-08-19T05:40:46.881Z,99.90
2022-08-19T05:43:16.462Z,99.90
2022-08-19T05:45:45.651Z,99.90
2022-08-19T05:48:14.590Z,99.90
2022-08-19T05:50:45.418Z,99.90
2022-08-19T05:53:15.563Z,99.90
2022-08-19T05:55:43.699Z,99.90
2022-08-19T05:58:12.199Z,99.90
2022-08-19T06:00:41.065Z,99.90
2022-08-19T06:03:12.622Z,99.90
2022-08-19T06:05:49.724Z,99.90
2022-08-19T06:08:33.497Z,99.90
2022-08-19T06:11:16.816Z,99.90
2022-08-19T06:13:46.009Z,99.90
2022-08-19T06:16:14.158Z,99.90
2022-08-19T06:18:42.357Z,99.90
2022-08-19T06:21:10.468Z,99.90
2022-08-19T06:23:40.392Z,99.90
2022-08-19T06:26:08.988Z,99.90
2022-08-19T06:28:37.092Z,99.90
2022-08-19T06:31:08.996Z,99.90
2022-08-19T06:33:38.400Z,99.90
2022-08-19T06:36:07.250Z,99.90
2022-08-19T06:38:35.388Z,99.90
2022-08-19T06:41:07.628Z,99.90
2022-08-19T06:43:38.121Z,99.90
2022-08-19T06:46:15.093Z,99.90
2022-08-19T06:48:45.907Z,99.90
2022-08-19T06:51:16.725Z,99.90
2022-08-19T06:53:47.981Z,99.90
2022-08-19T06:56:20.316Z,99.90
2022-08-19T06:58:53.731Z,99.90
2022-08-19T07:01:22.569Z,99.90
2022-08-19T07:03:50.681Z,99.90
2022-08-19T07:09:10.739Z,99.90
2022-08-19T07:11:46.547Z,99.90
2022-08-19T07:14:19.011Z,99.90
2022-08-19T07:16:49.183Z,99.90
2022-08-19T07:19:18.879Z,99.90
2022-08-19T07:21:48.026Z,99.90
2022-08-19T07:24:17.110Z,99.90
2022-08-19T07:26:51.762Z,99.90
2022-08-19T07:29:24.270Z,99.90
2022-08-19T07:31:56.861Z,99.90
2022-08-19T07:34:26.242Z,99.90
2022-08-19T07:36:55.091Z,99.90
2022-08-19T07:39:25.911Z,99.90
2022-08-19T07:41:56.338Z,99.90
2022-08-19T07:44:24.861Z,99.90
2022-08-19T07:46:56.668Z,99.90
2022-08-19T07:49:25.627Z,99.90
2022-08-19T07:51:57.326Z,99.90
2022-08-19T07:54:28.004Z,99.90
2022-08-19T07:56:57.936Z,99.90
2022-08-19T07:59:26.536Z,99.90
2022-08-19T08:01:54.912Z,99.90
2022-08-19T08:04:40.934Z,99.90
2022-08-19T08:07:31.465Z,99.90
2022-08-19T08:10:00.509Z,99.90
2022-08-19T08:12:38.886Z,99.90
2022-08-19T08:15:12.493Z,99.90
2022-08-19T08:17:49.169Z,99.90
2022-08-19T08:20:19.843Z,99.90
2022-08-19T08:23:06.730Z,99.90
2022-08-19T08:25:36.415Z,99.90
2022-08-19T08:28:06.725Z,99.90
2022-08-19T08:30:36.854Z,99.90
2022-08-19T08:33:06.652Z,99.90
2022-08-19T08:35:35.469Z,99.90
2022-08-19T08:38:05.250Z,99.90
2022-08-19T08:40:44.326Z,99.90
2022-08-19T08:43:26.498Z,99.90
2022-08-19T08:46:05.143Z,99.90
2022-08-19T08:48:41.764Z,99.90
2022-08-19T08:51:13.670Z,99.90
2022-08-19T08:53:50.566Z,99.90
2022-08-19T08:56:24.908Z,99.90
2022-08-19T08:59:01.988Z,99.90
2022-08-19T09:01:30.441Z,99.90
2022-08-19T09:04:02.756Z,99.90
2022-08-19T09:06:40.845Z,99.90
2022-08-19T09:09:16.497Z,99.90
2022-08-19T09:11:56.101Z,99.90
2022-08-19T09:14:54.333Z,99.90
2022-08-19T09:17:31.972Z,99.90
2022-08-19T09:20:05.356Z,99.90
2022-08-19T09:22:33.663Z,99.90
2022-08-19T09:25:02.203Z,99.90
2022-08-19T09:27:43.037Z,99.90
2022-08-19T09:30:18.659Z,99.90
2022-08-19T09:32:47.124Z,99.90
2022-08-19T09:35:23.638Z,99.70
2022-08-19T09:37:57.387Z,99.30
2022-08-19T09:40:30.057Z,99.10
2022-08-19T09:43:03.442Z,99.00
2022-08-19T09:45:41.548Z,98.60
2022-08-19T09:48:11.735Z,98.20
2022-08-19T09:50:52.036Z,98.10
2022-08-19T09:53:25.171Z,97.90
2022-08-19T09:55:54.152Z,97.70
2022-08-19T09:58:26.648Z,97.30
2022-08-19T10:00:56.702Z,97.20
2022-08-19T10:03:25.610Z,96.90
2022-08-19T10:06:00.181Z,96.70
2022-08-19T10:08:30.469Z,96.20
2022-08-19T10:10:59.765Z,95.90
2022-08-19T10:13:49.095Z,95.60
2022-08-19T10:16:22.550Z,94.90
2022-08-19T10:18:58.780Z,94.50
2022-08-19T10:21:29.321Z,94.30
2022-08-19T10:24:04.832Z,94.00
2022-08-19T10:26:34.939Z,93.70
2022-08-19T10:29:03.604Z,93.60
2022-08-19T10:32:01.472Z,93.60
2022-08-19T10:34:27.919Z,93.60
2022-08-19T10:37:00.514Z,93.60
2022-08-19T10:39:31.288Z,93.60
2022-08-19T10:42:00.524Z,93.60
2022-08-19T10:44:32.097Z,93.40
2022-08-19T10:47:02.290Z,93.30
2022-08-19T10:49:30.488Z,93.30
2022-08-19T10:52:18.667Z,93.10
2022-08-19T10:55:08.244Z,93.00
2022-08-19T10:57:59.314Z,92.60
2022-08-19T11:00:26.386Z,92.60
2022-08-19T11:02:56.751Z,92.50
2022-08-19T11:05:25.189Z,92.40
2022-08-19T11:07:53.895Z,92.10
2022-08-19T11:10:23.004Z,92.00
2022-08-19T11:12:55.113Z,91.70
2022-08-19T11:15:24.192Z,91.60
2022-08-19T11:17:57.194Z,91.30
2022-08-19T11:20:25.886Z,91.10
2022-08-19T11:22:54.914Z,90.90
2022-08-19T11:25:23.323Z,90.50
2022-08-19T11:27:53.223Z,90.20
2022-08-19T11:30:21.828Z,90.20
2022-08-19T11:32:50.439Z,90.20
2022-08-19T11:35:21.099Z,90.30
2022-08-19T11:37:50.077Z,90.50
2022-08-19T11:40:18.366Z,90.50
2022-08-19T11:42:59.201Z,90.40
2022-08-19T11:45:29.633Z,90.30
2022-08-19T11:47:58.142Z,90.10
2022-08-19T11:50:27.623Z,89.70
2022-08-19T11:52:57.083Z,89.40
2022-08-19T11:55:25.477Z,89.40
2022-08-19T11:57:53.725Z,89.20
2022-08-19T12:00:22.594Z,89.40
2022-08-19T12:02:50.684Z,89.10
2022-08-19T12:05:18.938Z,88.80
2022-08-19T12:07:48.374Z,88.50
2022-08-19T12:10:19.475Z,88.00
2022-08-19T12:12:54.635Z,87.20
2022-08-19T12:15:36.776Z,86.80
2022-08-19T12:18:06.409Z,86.60
2022-08-19T12:20:37.308Z,86.40
2022-08-19T12:23:08.241Z,85.90
2022-08-19T12:25:36.451Z,85.40
2022-08-19T12:28:05.157Z,85.00
2022-08-19T12:30:33.298Z,84.90
2022-08-19T12:33:01.467Z,84.50
2022-08-19T12:35:31.504Z,84.20
2022-08-19T12:38:00.911Z,84.20
2022-08-19T12:40:30.848Z,84.00
2022-08-19T12:42:58.930Z,84.00
2022-08-19T12:45:27.838Z,84.20
2022-08-19T12:47:56.372Z,84.40
2022-08-19T12:50:24.521Z,84.50
2022-08-19T12:52:52.905Z,84.90
2022-08-19T12:55:21.190Z,85.30
2022-08-19T12:57:51.518Z,85.30
2022-08-19T13:00:22.753Z,85.20
2022-08-19T13:02:53.717Z,85.20
2022-08-19T13:05:23.973Z,85.20
2022-08-19T13:07:56.797Z,84.90
2022-08-19T13:10:28.687Z,84.80
2022-08-19T13:13:00.513Z,84.80
2022-08-19T13:15:32.054Z,84.80
2022-08-19T13:18:00.706Z,85.00
2022-08-19T13:20:28.954Z,85.00
2022-08-19T13:22:58.320Z,84.90
2022-08-19T13:25:27.549Z,85.10
2022-08-19T13:27:57.034Z,85.20
2022-08-19T13:30:43.215Z,84.80
2022-08-19T13:33:16.486Z,84.70
2022-08-19T13:35:48.522Z,84.70
2022-08-19T13:38:18.419Z,84.80
2022-08-19T13:40:47.336Z,85.00
2022-08-19T13:43:22.772Z,85.40
2022-08-19T13:45:57.068Z,85.60
2022-08-19T13:48:27.447Z,85.50
2022-08-19T13:50:56.154Z,85.20
2022-08-19T13:53:24.546Z,85.00
2022-08-19T13:55:54.495Z,85.10
2022-08-19T13:58:24.541Z,85.20
2022-08-19T14:00:52.833Z,85.30
2022-08-19T14:03:20.965Z,85.60
2022-08-19T14:05:49.207Z,85.60
2022-08-19T14:08:17.753Z,85.80
2022-08-19T14:10:46.401Z,85.90
2022-08-19T14:13:18.305Z,86.00
2022-08-19T14:15:49.237Z,86.10
2022-08-19T14:18:18.919Z,86.20
2022-08-19T14:20:47.156Z,86.30
2022-08-19T14:23:15.658Z,86.40
2022-08-19T14:25:43.755Z,86.40
2022-08-19T14:28:12.093Z,86.30
2022-08-19T14:30:40.852Z,86.40
2022-08-19T14:33:10.382Z,86.30
2022-08-19T14:35:38.732Z,86.40
2022-08-19T14:38:09.012Z,86.40
2022-08-19T14:40:37.277Z,86.40
2022-08-19T14:43:06.608Z,86.40
2022-08-19T14:45:37.475Z,86.20
2022-08-19T14:48:05.902Z,86.00
2022-08-19T14:50:36.989Z,86.10
2022-08-19T14:53:12.330Z,85.60
2022-08-19T14:55:44.460Z,85.30
2022-08-19T14:58:28.421Z,85.10
2022-08-19T15:01:00.414Z,85.00
2022-08-19T15:03:28.825Z,85.40
2022-08-19T15:05:58.808Z,85.40
2022-08-19T15:08:27.238Z,85.50
2022-08-19T15:10:55.885Z,85.60
2022-08-19T15:13:25.546Z,85.40
2022-08-19T15:15:53.825Z,85.30
2022-08-19T15:18:22.746Z,85.20
2022-08-19T15:20:51.842Z,85.40
2022-08-19T15:23:22.965Z,85.30
2022-08-19T15:25:54.366Z,85.20
2022-08-19T15:28:22.548Z,85.30
2022-08-19T15:30:51.086Z,85.30
2022-08-19T15:33:20.636Z,85.30
2022-08-19T15:35:50.874Z,85.20
2022-08-19T15:38:23.801Z,84.90
2022-08-19T15:40:52.402Z,84.90
2022-08-19T15:43:22.888Z,84.80
2022-08-19T15:45:51.113Z,84.60
2022-08-19T15:48:19.345Z,84.60
2022-08-19T15:50:47.466Z,84.60
2022-08-19T15:53:15.734Z,84.80
2022-08-19T15:55:48.187Z,84.90
2022-08-19T15:58:30.626Z,85.30
2022-08-19T16:01:17.177Z,84.50
2022-08-19T16:04:06.001Z,84.60
2022-08-19T16:06:45.108Z,84.80
2022-08-19T16:09:14.002Z,84.60
2022-08-19T16:11:46.191Z,84.40
2022-08-19T16:14:15.595Z,84.50
2022-08-19T16:16:47.099Z,84.50
2022-08-19T16:19:17.422Z,84.60
2022-08-19T16:21:46.877Z,84.60
2022-08-19T16:24:17.683Z,84.60
2022-08-19T16:26:48.199Z,84.60
2022-08-19T16:29:33.923Z,84.30
2022-08-19T16:32:02.970Z,84.40
2022-08-19T16:34:32.140Z,84.20
2022-08-19T16:37:01.833Z,84.20
2022-08-19T16:39:30.018Z,84.80
2022-08-19T16:41:59.736Z,84.50
2022-08-19T16:44:29.649Z,84.80
2022-08-19T16:46:59.816Z,84.70
2022-08-19T16:49:54.077Z,84.70
2022-08-19T16:52:17.913Z,85.10
2022-08-19T16:54:46.125Z,85.00
2022-08-19T16:57:19.238Z,85.00
2022-08-19T16:59:48.759Z,84.90
2022-08-19T17:02:18.157Z,85.50
2022-08-19T17:04:55.926Z,85.80
2022-08-19T17:07:27.676Z,86.00
2022-08-19T17:09:56.144Z,86.10
2022-08-19T17:12:31.743Z,86.10
2022-08-19T17:15:01.618Z,86.10
2022-08-19T17:17:30.121Z,85.70
2022-08-19T17:19:58.607Z,85.30
2022-08-19T17:22:26.831Z,85.70
2022-08-19T17:24:56.302Z,84.30
2022-08-19T17:27:31.464Z,83.20
2022-08-19T17:30:00.941Z,82.10
2022-08-19T17:32:29.406Z,80.70
2022-08-19T17:34:57.605Z,79.10
2022-08-19T17:37:25.700Z,78.40
2022-08-19T17:39:53.901Z,76.70
2022-08-19T17:42:22.168Z,75.70
2022-08-19T17:44:51.637Z,75.50
2022-08-19T17:47:21.107Z,74.50
2022-08-19T17:49:49.297Z,74.90
2022-08-19T17:52:18.473Z,75.20
2022-08-19T17:54:46.733Z,75.60
2022-08-19T17:57:15.248Z,76.00
2022-08-19T17:59:43.456Z,76.30
2022-08-19T18:02:13.618Z,77.40
2022-08-19T18:04:46.869Z,77.10
2022-08-19T18:07:21.305Z,77.40
2022-08-19T18:09:51.877Z,77.70
2022-08-19T18:12:24.478Z,78.10
2022-08-19T18:14:52.661Z,78.60
2022-08-19T18:17:23.251Z,79.00
2022-08-19T18:19:51.498Z,79.30
2022-08-19T18:22:26.694Z,79.50
2022-08-19T18:24:55.017Z,80.40
2022-08-19T18:27:23.126Z,80.20
2022-08-19T18:29:51.256Z,81.30
2022-08-19T18:32:24.116Z,80.90
2022-08-19T18:34:52.986Z,81.20
2022-08-19T18:37:21.481Z,81.40
2022-08-19T18:40:07.179Z,81.80
2022-08-19T18:42:52.912Z,82.00
2022-08-19T18:45:37.526Z,82.40
2022-08-19T18:48:27.738Z,82.90
2022-08-19T18:50:58.310Z,83.50
2022-08-19T18:53:28.167Z,83.90
2022-08-19T18:55:56.347Z,84.10
2022-08-19T18:58:26.644Z,84.30
2022-08-19T19:00:57.152Z,84.60
2022-08-19T19:03:27.629Z,84.90
2022-08-19T19:05:55.986Z,85.30
2022-08-19T19:08:26.748Z,85.50
2022-08-19T19:10:56.950Z,85.50
2022-08-19T19:13:25.110Z,85.50
2022-08-19T19:15:54.435Z,85.60
2022-08-19T19:18:22.600Z,85.60
2022-08-19T19:20:52.089Z,85.70
2022-08-19T19:23:20.551Z,86.00
2022-08-19T19:25:51.069Z,86.10
2022-08-19T19:28:23.892Z,86.20
2022-08-19T19:30:53.488Z,86.40
2022-08-19T19:33:21.816Z,86.60
2022-08-19T19:35:51.288Z,86.90
2022-08-19T19:38:19.548Z,87.30
2022-08-19T19:40:47.632Z,87.60
2022-08-19T19:43:18.265Z,87.90
2022-08-19T19:45:48.195Z,88.90
2022-08-19T19:48:16.609Z,88.50
2022-08-19T19:50:45.928Z,88.80
2022-08-19T19:53:23.615Z,89.10
2022-08-19T19:55:58.673Z,89.20
2022-08-19T19:58:29.138Z,89.40
2022-08-19T20:00:59.148Z,89.50
2022-08-19T20:03:29.998Z,89.70
2022-08-19T20:05:59.512Z,90.00
2022-08-19T20:08:47.168Z,90.00
2022-08-19T20:11:29.033Z,90.10
2022-08-19T20:13:57.125Z,90.20
2022-08-19T20:16:25.771Z,90.30
2022-08-19T20:18:57.049Z,90.50
2022-08-19T20:21:27.893Z,90.70
2022-08-19T20:24:09.389Z,90.80
2022-08-19T20:26:38.461Z,90.90
2022-08-19T20:29:13.668Z,91.00
2022-08-19T20:31:57.565Z,91.10
2022-08-19T20:34:28.084Z,91.20
2022-08-19T20:36:56.235Z,91.30
2022-08-19T20:39:25.775Z,91.20
2022-08-19T20:41:56.374Z,91.30
2022-08-19T20:44:25.842Z,91.30
2022-08-19T20:46:54.842Z,91.40
2022-08-19T20:49:27.201Z,91.40
2022-08-19T20:51:55.976Z,91.50
2022-08-19T20:54:25.967Z,91.60
2022-08-19T20:56:54.129Z,91.70
2022-08-19T20:59:23.638Z,91.70
2022-08-19T21:01:52.465Z,91.80
2022-08-19T21:04:21.196Z,92.00
2022-08-19T21:06:49.279Z,92.10
2022-08-19T21:09:17.414Z,92.10
2022-08-19T21:11:46.913Z,92.20
2022-08-19T21:14:15.249Z,92.30
2022-08-19T21:16:43.345Z,92.50
2022-08-19T21:19:11.441Z,92.60
2022-08-19T21:21:39.562Z,92.70
2022-08-19T21:24:07.929Z,92.90
2022-08-19T21:26:36.108Z,93.10
2022-08-19T21:29:05.534Z,93.20
2022-08-19T21:31:33.828Z,93.40
2022-08-19T21:34:01.910Z,93.50
2022-08-19T21:36:29.981Z,93.60
2022-08-19T21:38:58.053Z,93.60
2022-08-19T21:41:26.454Z,93.70
2022-08-19T21:43:54.941Z,93.80
2022-08-19T21:46:24.341Z,93.90
2022-08-19T21:48:52.492Z,94.00
2022-08-19T21:51:21.134Z,94.00
2022-08-19T21:53:49.374Z,94.00
2022-08-19T21:56:21.283Z,94.20
2022-08-19T21:58:49.386Z,94.30
2022-08-19T22:01:17.835Z,94.40
2022-08-19T22:03:47.384Z,94.50
2022-08-19T22:06:16.336Z,94.60
2022-08-19T22:08:44.859Z,95.00
2022-08-19T22:11:13.188Z,94.80
2022-08-19T22:13:41.677Z,95.00
2022-08-19T22:16:10.176Z,95.00
2022-08-19T22:18:38.358Z,95.10
2022-08-19T22:21:11.671Z,95.50
2022-08-19T22:23:40.797Z,95.30
2022-08-19T22:26:09.565Z,95.40
2022-08-19T22:28:38.207Z,95.50
2022-08-19T22:31:08.266Z,95.60
2022-08-19T22:33:38.278Z,95.70
2022-08-19T22:36:08.898Z,95.70
2022-08-19T22:38:38.294Z,95.90
2022-08-19T22:41:08.032Z,96.00
2022-08-19T22:43:37.463Z,96.10
2022-08-19T22:46:17.333Z,96.20
2022-08-19T22:48:46.784Z,96.20
2022-08-19T22:51:34.046Z,96.30
2022-08-19T22:54:02.701Z,96.40
2022-08-19T22:56:30.933Z,96.50
2022-08-19T22:58:59.273Z,96.60
2022-08-19T23:01:30.244Z,96.70
2022-08-19T23:04:00.483Z,96.80
2022-08-19T23:06:35.737Z,96.80
2022-08-19T23:09:07.211Z,96.90
2022-08-19T23:11:38.166Z,97.10
2022-08-19T23:14:10.380Z,97.10
2022-08-19T23:16:38.529Z,97.20
2022-08-19T23:19:08.222Z,97.30
2022-08-19T23:21:37.691Z,97.30
2022-08-19T23:24:06.529Z,97.70
2022-08-19T23:26:36.083Z,97.50
2022-08-19T23:29:23.115Z,97.60
2022-08-19T23:31:51.485Z,97.70
2022-08-19T23:34:19.650Z,97.80
2022-08-19T23:36:50.696Z,98.00
2022-08-19T23:39:19.210Z,98.10
2022-08-19T23:41:47.379Z,98.20
2022-08-19T23:44:15.627Z,98.30
2022-08-19T23:46:54.324Z,98.50
2022-08-19T23:49:25.187Z,98.60
2022-08-19T23:51:55.484Z,98.80
2022-08-19T23:54:34.315Z,98.90
2022-08-19T23:57:13.921Z,99.00
2022-08-19T23:59:45.155Z,99.10
